| time (UTC) | temp F | wind direction | speed MPH | gust MPH | rain 1hr in | rain 24hr in | rain mn in | humidity % | barometer mb |
| 20260504044557 | 56 | 279 | 2.0 | 3.0 | 0.00 | 0.00 | 0.00 | 54 | 1006.9 |
| 20260504043059 | 56 | 279 | 1.0 | 2.0 | 0.00 | 0.00 | 0.00 | 54 | 1006.9 |
| 20260504041552 | 55 | 0 | 0.0 | 0.0 | 0.00 | 0.00 | 0.00 | 55 | 1006.9 |
| 20260504040058 | 57 | 0 | 0.0 | 2.0 | 0.00 | 0.00 | 0.00 | 53 | 1007.1 |
| 20260504034606 | 57 | 0 | 0.0 | 0.0 | 0.00 | 0.00 | 0.00 | 52 | 1007.2 |
| 20260504033055 | 58 | 279 | 0.0 | 4.0 | 0.00 | 0.00 | 0.00 | 50 | 1007.3 |
| 20260504031554 | 60 | 279 | 2.0 | 4.0 | 0.00 | 0.00 | 0.00 | 47 | 1007.2 |
| 20260504030056 | 60 | 279 | 1.0 | 3.0 | 0.00 | 0.00 | 0.00 | 48 | 1007.2 |
| 20260504024556 | 60 | 279 | 0.0 | 4.0 | 0.00 | 0.00 | 0.00 | 48 | 1007.1 |
| 20260504023055 | 62 | 279 | 3.0 | 6.0 | 0.00 | 0.00 | 0.00 | 44 | 1007.0 |
| 20260504021554 | 63 | 279 | 1.0 | 7.0 | 0.00 | 0.00 | 0.00 | 43 | 1006.9 |
| 20260504020115 | 64 | 282 | 4.0 | 7.0 | 0.00 | 0.00 | 0.00 | 40 | 1006.8 |
| 20260504014558 | 65 | 273 | 6.0 | 8.0 | 0.00 | 0.00 | 0.00 | 39 | 1006.6 |
| 20260504013110 | 64 | 273 | 6.0 | 8.0 | 0.00 | 0.00 | 0.00 | 39 | 1006.5 |
| 20260504011553 | 65 | 273 | 6.0 | 8.0 | 0.00 | 0.00 | 0.00 | 40 | 1006.3 |
| 20260504010055 | 65 | 281 | 7.0 | 9.0 | 0.00 | 0.00 | 0.00 | 41 | 1006.2 |
| 20260504004552 | 67 | 290 | 8.0 | 10.0 | 0.00 | 0.00 | 0.00 | 38 | 1006.1 |
| 20260504003050 | 69 | 289 | 9.0 | 13.0 | 0.00 | 0.00 | 0.00 | 35 | 1006.1 |
| 20260504001554 | 70 | 291 | 11.0 | 15.0 | 0.00 | 0.00 | 0.00 | 34 | 1006.0 |
| 20260504000058 | 71 | 296 | 12.0 | 18.0 | 0.00 | 0.00 | 0.00 | 32 | 1006.0 |
| 20260503234552 | 72 | 276 | 14.0 | 20.0 | 0.00 | 0.00 | 0.00 | 30 | 1005.8 |
| 20260503233054 | 72 | 298 | 16.0 | 24.0 | 0.00 | 0.00 | 0.00 | 31 | 1006.0 |
| 20260503231552 | 73 | 271 | 16.0 | 24.0 | 0.00 | 0.00 | 0.00 | 31 | 1005.9 |
| 20260503230051 | 73 | 317 | 16.0 | 23.0 | 0.00 | 0.00 | 0.00 | 30 | 1005.8 |
| 20260503224559 | 73 | 298 | 17.0 | 27.0 | 0.00 | 0.00 | 0.00 | 30 | 1005.8 |
| 20260503223054 | 74 | 280 | 16.0 | 26.0 | 0.00 | 0.00 | 0.00 | 27 | 1005.6 |
| 20260503221603 | 74 | 287 | 16.0 | 27.0 | 0.00 | 0.00 | 0.00 | 32 | 1005.5 |
| 20260503220057 | 74 | 296 | 16.0 | 24.0 | 0.00 | 0.00 | 0.00 | 33 | 1005.6 |
| 20260503214553 | 74 | 267 | 19.0 | 30.0 | 0.00 | 0.00 | 0.00 | 29 | 1005.4 |
| 20260503213053 | 74 | 303 | 19.0 | 25.0 | 0.00 | 0.00 | 0.00 | 32 | 1005.6 |
| 20260503211550 | 74 | 286 | 16.0 | 28.0 | 0.00 | 0.00 | 0.00 | 34 | 1005.4 |
| 20260503210053 | 74 | 285 | 18.0 | 29.0 | 0.00 | 0.00 | 0.00 | 34 | 1005.6 |
| 20260503204611 | 74 | 317 | 16.0 | 28.0 | 0.00 | 0.00 | 0.00 | 31 | 1005.9 |
| 20260503203057 | 74 | 263 | 17.0 | 26.0 | 0.00 | 0.00 | 0.00 | 34 | 1005.9 |
| 20260503201553 | 74 | 311 | 20.0 | 29.0 | 0.00 | 0.00 | 0.00 | 34 | 1005.9 |
| 20260503200054 | 73 | 263 | 16.0 | 32.0 | 0.00 | 0.00 | 0.00 | 32 | 1006.0 |
| 20260503194557 | 73 | 286 | 24.0 | 31.0 | 0.00 | 0.00 | 0.00 | 34 | 1006.1 |
| 20260503193059 | 73 | 275 | 19.0 | 29.0 | 0.00 | 0.00 | 0.00 | 37 | 1006.3 |
| 20260503191608 | 72 | 259 | 12.0 | 27.0 | 0.00 | 0.00 | 0.00 | 43 | 1006.5 |
| 20260503190051 | 70 | 269 | 16.0 | 27.0 | 0.00 | 0.00 | 0.00 | 44 | 1006.7 |
| 20260503184600 | 70 | 248 | 17.0 | 30.0 | 0.00 | 0.00 | 0.00 | 43 | 1006.8 |
| 20260503183057 | 68 | 272 | 19.0 | 31.0 | 0.00 | 0.00 | 0.00 | 45 | 1007.0 |
| 20260503181555 | 68 | 248 | 17.0 | 26.0 | 0.00 | 0.00 | 0.00 | 44 | 1007.1 |
| 20260503180100 | 67 | 246 | 19.0 | 28.0 | 0.00 | 0.00 | 0.00 | 45 | 1007.4 |
| 20260503174554 | 66 | 252 | 17.0 | 27.0 | 0.00 | 0.00 | 0.00 | 47 | 1007.6 |
| 20260503173053 | 66 | 269 | 19.0 | 27.0 | 0.00 | 0.00 | 0.00 | 49 | 1007.8 |
| 20260503171552 | 64 | 245 | 17.0 | 27.0 | 0.00 | 0.00 | 0.00 | 49 | 1007.9 |
| 20260503170105 | 63 | 251 | 16.0 | 26.0 | 0.00 | 0.00 | 0.00 | 47 | 1008.0 |
| 20260503160106 | 61 | 258 | 11.0 | 24.0 | 0.00 | 0.00 | 0.00 | 52 | 1008.5 |
| 20260503100105 | 50 | 150 | 3.0 | 7.0 | 0.00 | 0.00 | 0.00 | 64 | 1012.7 |
| 20260503081553 | 52 | 247 | 10.0 | 18.0 | 0.00 | 0.00 | 0.00 | 56 | 1013.9 |
| 20260503080104 | 51 | 253 | 4.0 | 14.0 | 0.00 | 0.00 | 0.00 | 57 | 1013.6 |
| 20260503071612 | 50 | 196 | 4.0 | 10.0 | 0.00 | 0.00 | 0.00 | 58 | 1013.5 |
| 20260503054610 | 51 | 209 | 6.0 | 12.0 | 0.00 | 0.00 | 0.00 | 54 | 1014.3 |
| 20260503053057 | 51 | 209 | 7.0 | 11.0 | 0.00 | 0.00 | 0.00 | 54 | 1014.4 |